This is the latest recevied weather packets stored in our database for station/object KQ4HEI. If no packets are shown the sender has not sent any weather packets the latest 1 day(s).
| Time | Temp. | Humidity | Pressure | Rain* | Wind** | Luminosity | Snow |
|---|---|---|---|---|---|---|---|
| 1836274466 | 20° C | 91% | 1014.7 hPa | 0 mm | 0 m/s | - | - |
| 1836274317 | 20° C | 92% | 1014.9 hPa | 0 mm | 0 m/s | - | - |
| 1836273866 | 20.56° C | 91% | 1014.7 hPa | 0 mm | 0 m/s | - | - |
| 1778032469 | 20° C | 89% | 1014 hPa | 0 mm | 0 m/s | - | - |
| 1778031269 | 20.56° C | 86% | 1013.6 hPa | 0 mm | 0 m/s | - | - |
| 1778030069 | 21.67° C | 80% | 1013.6 hPa | 0 mm | 0 m/s | - | - |
| 1778028869 | 22.22° C | 76% | 1013.4 hPa | 0 mm | 0 m/s | - | - |
| 1778027669 | 22.78° C | 71% | 1012.9 hPa | 0 mm | 0 m/s | - | - |
| 1778026469 | 23.89° C | 71% | 1013.1 hPa | 0 mm | 0.45 m/s, 203° | - | - |
| 1778025269 | 25° C | 65% | 1013.1 hPa | 0 mm | 1.34 m/s, 215° | - | - |
| 1778024068 | 25.56° C | 60% | 1013 hPa | 0 mm | 1.79 m/s, 270° | - | - |
| 1778022869 | 26.67° C | 58% | 1013 hPa | 0 mm | 1.34 m/s, 215° | - | - |
| 1778021669 | 28.33° C | 56% | 1012.9 hPa | 0 mm | 2.24 m/s, 242° | - | - |
| 1778020469 | 28.33° C | 54% | 1013.1 hPa | 0 mm | 2.24 m/s, 229° | - | - |
| 1778019269 | 28.89° C | 51% | 1012.8 hPa | 0 mm | 2.24 m/s, 225° | - | - |
| 1778018068 | 28.89° C | 52% | 1012.6 hPa | 0 mm | 2.68 m/s, 237° | - | - |
| 1778016868 | 29.44° C | 51% | 1013 hPa | 0 mm | 2.24 m/s, 244° | - | - |
| 1778015669 | 29.44° C | 50% | 1012.8 hPa | 0 mm | 2.24 m/s, 227° | - | - |
| 1778014469 | 30° C | 49% | 1013.1 hPa | 0 mm | 1.79 m/s, 244° | - | - |
| 1778013268 | 30° C | 49% | 1013.2 hPa | 0 mm | 1.34 m/s, 212° | - | - |
| 1778012069 | 29.44° C | 50% | 1013.4 hPa | 0 mm | 2.24 m/s, 243° | - | - |
| 1778010870 | 30° C | 47% | 1013.4 hPa | 0 mm | 2.24 m/s, 242° | - | - |
| 1778009668 | 30.56° C | 48% | 1013.6 hPa | 0 mm | 2.24 m/s, 149° | - | - |
| 1778008468 | 30° C | 47% | 1014 hPa | 0 mm | 1.79 m/s, 221° | - | - |
| 1778007269 | 28.89° C | 50% | 1014 hPa | 0 mm | 1.79 m/s, 187° | - | - |
* Rain latest hour (hover to see other rain measurements)
** Current wind speed in m/s (hover to see current wind gust speed)